sensor_id;sensor_type;location;lat;lon;timestamp;P1;durP1;ratioP1;P2;durP2;ratioP2
1336;SDS011;662;48.814;9.318;2023-02-15T00:01:51;24.20;;;20.90;;
1336;SDS011;662;48.814;9.318;2023-02-15T00:04:20;22.87;;;20.37;;
1336;SDS011;662;48.814;9.318;2023-02-15T00:06:47;26.60;;;19.93;;
1336;SDS011;662;48.814;9.318;2023-02-15T00:09:13;26.00;;;21.53;;
1336;SDS011;662;48.814;9.318;2023-02-15T00:11:40;24.43;;;20.20;;
1336;SDS011;662;48.814;9.318;2023-02-15T00:14:28;22.10;;;18.30;;
1336;SDS011;662;48.814;9.318;2023-02-15T00:16:53;25.83;;;20.07;;
1336;SDS011;662;48.814;9.318;2023-02-15T00:19:20;24.27;;;20.10;;
1336;SDS011;662;48.814;9.318;2023-02-15T00:21:46;25.73;;;19.73;;
1336;SDS011;662;48.814;9.318;2023-02-15T00:24:13;22.43;;;19.30;;
1336;SDS011;662;48.814;9.318;2023-02-15T00:26:40;22.53;;;19.47;;
1336;SDS011;662;48.814;9.318;2023-02-15T00:29:07;26.40;;;20.33;;
1336;SDS011;662;48.814;9.318;2023-02-15T00:31:34;26.17;;;19.80;;
1336;SDS011;662;48.814;9.318;2023-02-15T00:34:11;23.17;;;19.60;;
1336;SDS011;662;48.814;9.318;2023-02-15T00:36:37;23.13;;;19.23;;
1336;SDS011;662;48.814;9.318;2023-02-15T00:39:03;24.13;;;20.50;;
1336;SDS011;662;48.814;9.318;2023-02-15T00:41:30;26.90;;;20.80;;
1336;SDS011;662;48.814;9.318;2023-02-15T00:43:56;25.57;;;21.33;;
1336;SDS011;662;48.814;9.318;2023-02-15T00:46:22;27.03;;;21.73;;
1336;SDS011;662;48.814;9.318;2023-02-15T00:48:47;25.80;;;22.23;;
1336;SDS011;662;48.814;9.318;2023-02-15T00:51:13;31.33;;;28.03;;
1336;SDS011;662;48.814;9.318;2023-02-15T00:53:39;37.00;;;33.10;;
1336;SDS011;662;48.814;9.318;2023-02-15T00:56:04;36.37;;;30.10;;
1336;SDS011;662;48.814;9.318;2023-02-15T00:58:30;30.10;;;25.60;;
1336;SDS011;662;48.814;9.318;2023-02-15T01:01:01;30.43;;;25.27;;
1336;SDS011;662;48.814;9.318;2023-02-15T01:03:32;30.27;;;23.87;;
1336;SDS011;662;48.814;9.318;2023-02-15T01:05:58;25.07;;;21.63;;
1336;SDS011;662;48.814;9.318;2023-02-15T01:08:24;26.47;;;20.77;;
1336;SDS011;662;48.814;9.318;2023-02-15T01:10:50;26.00;;;20.80;;
1336;SDS011;662;48.814;9.318;2023-02-15T01:13:16;27.67;;;23.10;;
1336;SDS011;662;48.814;9.318;2023-02-15T01:15:42;24.87;;;21.50;;
1336;SDS011;662;48.814;9.318;2023-02-15T01:18:08;26.13;;;23.13;;
1336;SDS011;662;48.814;9.318;2023-02-15T01:20:38;25.97;;;23.17;;
1336;SDS011;662;48.814;9.318;2023-02-15T01:23:06;27.37;;;22.97;;
1336;SDS011;662;48.814;9.318;2023-02-15T01:25:32;24.67;;;21.30;;
1336;SDS011;662;48.814;9.318;2023-02-15T01:27:59;23.70;;;21.17;;
1336;SDS011;662;48.814;9.318;2023-02-15T01:30:25;28.00;;;21.80;;
1336;SDS011;662;48.814;9.318;2023-02-15T01:32:51;26.33;;;23.17;;
1336;SDS011;662;48.814;9.318;2023-02-15T01:35:17;27.53;;;21.13;;
1336;SDS011;662;48.814;9.318;2023-02-15T01:37:42;27.93;;;22.40;;
1336;SDS011;662;48.814;9.318;2023-02-15T01:40:11;27.17;;;23.37;;
1336;SDS011;662;48.814;9.318;2023-02-15T01:42:38;27.03;;;22.77;;
1336;SDS011;662;48.814;9.318;2023-02-15T01:45:05;24.63;;;21.73;;
1336;SDS011;662;48.814;9.318;2023-02-15T01:47:44;25.00;;;21.87;;
1336;SDS011;662;48.814;9.318;2023-02-15T01:50:16;27.73;;;23.87;;
1336;SDS011;662;48.814;9.318;2023-02-15T01:52:51;25.80;;;23.00;;
1336;SDS011;662;48.814;9.318;2023-02-15T01:55:24;26.37;;;23.40;;
1336;SDS011;662;48.814;9.318;2023-02-15T01:57:52;25.13;;;22.53;;
1336;SDS011;662;48.814;9.318;2023-02-15T02:00:18;27.10;;;22.50;;
1336;SDS011;662;48.814;9.318;2023-02-15T02:02:45;24.07;;;21.17;;
1336;SDS011;662;48.814;9.318;2023-02-15T02:05:15;24.13;;;21.57;;
1336;SDS011;662;48.814;9.318;2023-02-15T02:07:42;27.07;;;23.50;;
1336;SDS011;662;48.814;9.318;2023-02-15T02:10:11;22.63;;;19.90;;
1336;SDS011;662;48.814;9.318;2023-02-15T02:12:39;26.63;;;21.87;;
1336;SDS011;662;48.814;9.318;2023-02-15T02:15:09;23.57;;;21.17;;
1336;SDS011;662;48.814;9.318;2023-02-15T02:17:49;23.53;;;21.03;;
1336;SDS011;662;48.814;9.318;2023-02-15T02:20:26;23.10;;;20.17;;
1336;SDS011;662;48.814;9.318;2023-02-15T02:29:17;23.93;;;21.43;;
1336;SDS011;662;48.814;9.318;2023-02-15T02:34:51;24.53;;;21.80;;
1336;SDS011;662;48.814;9.318;2023-02-15T02:42:43;23.23;;;20.73;;
1336;SDS011;662;48.814;9.318;2023-02-15T02:45:20;25.90;;;22.13;;
1336;SDS011;662;48.814;9.318;2023-02-15T02:47:54;24.07;;;20.87;;
1336;SDS011;662;48.814;9.318;2023-02-15T02:50:25;25.17;;;22.43;;
1336;SDS011;662;48.814;9.318;2023-02-15T02:52:54;25.07;;;22.40;;
1336;SDS011;662;48.814;9.318;2023-02-15T02:55:23;25.00;;;22.40;;
1336;SDS011;662;48.814;9.318;2023-02-15T02:58:22;28.00;;;23.37;;
1336;SDS011;662;48.814;9.318;2023-02-15T03:00:57;25.67;;;22.93;;
1336;SDS011;662;48.814;9.318;2023-02-15T03:03:37;22.13;;;19.77;;
1336;SDS011;662;48.814;9.318;2023-02-15T03:06:09;22.60;;;20.30;;
1336;SDS011;662;48.814;9.318;2023-02-15T03:08:43;22.80;;;20.37;;
1336;SDS011;662;48.814;9.318;2023-02-15T03:11:13;23.70;;;20.50;;
1336;SDS011;662;48.814;9.318;2023-02-15T03:13:39;25.90;;;23.30;;
1336;SDS011;662;48.814;9.318;2023-02-15T03:16:05;31.17;;;28.03;;
1336;SDS011;662;48.814;9.318;2023-02-15T03:19:12;27.37;;;24.63;;
1336;SDS011;662;48.814;9.318;2023-02-15T03:27:33;24.27;;;20.67;;
1336;SDS011;662;48.814;9.318;2023-02-15T03:30:02;23.83;;;20.90;;
1336;SDS011;662;48.814;9.318;2023-02-15T03:32:32;25.20;;;20.97;;
1336;SDS011;662;48.814;9.318;2023-02-15T03:34:59;22.97;;;20.57;;
1336;SDS011;662;48.814;9.318;2023-02-15T03:38:07;22.53;;;20.27;;
1336;SDS011;662;48.814;9.318;2023-02-15T03:40:23;22.83;;;20.53;;
1336;SDS011;662;48.814;9.318;2023-02-15T03:43:21;23.93;;;20.50;;
1336;SDS011;662;48.814;9.318;2023-02-15T03:45:52;23.47;;;20.97;;
1336;SDS011;662;48.814;9.318;2023-02-15T03:48:30;23.27;;;20.77;;
1336;SDS011;662;48.814;9.318;2023-02-15T03:51:04;26.20;;;22.67;;
1336;SDS011;662;48.814;9.318;2023-02-15T03:53:52;29.30;;;23.80;;
1336;SDS011;662;48.814;9.318;2023-02-15T03:56:19;32.23;;;24.77;;
1336;SDS011;662;48.814;9.318;2023-02-15T03:58:44;30.30;;;22.80;;
1336;SDS011;662;48.814;9.318;2023-02-15T04:01:34;27.40;;;23.80;;
1336;SDS011;662;48.814;9.318;2023-02-15T04:04:22;27.80;;;22.87;;
1336;SDS011;662;48.814;9.318;2023-02-15T04:06:55;29.83;;;23.73;;
1336;SDS011;662;48.814;9.318;2023-02-15T04:09:21;28.40;;;22.90;;
1336;SDS011;662;48.814;9.318;2023-02-15T04:12:05;28.13;;;22.73;;
1336;SDS011;662;48.814;9.318;2023-02-15T04:14:30;23.60;;;21.10;;
1336;SDS011;662;48.814;9.318;2023-02-15T04:17:22;28.47;;;22.80;;
1336;SDS011;662;48.814;9.318;2023-02-15T04:19:48;26.03;;;21.97;;
1336;SDS011;662;48.814;9.318;2023-02-15T04:22:32;33.13;;;24.00;;
1336;SDS011;662;48.814;9.318;2023-02-15T04:25:16;28.33;;;22.73;;
1336;SDS011;662;48.814;9.318;2023-02-15T04:27:44;32.17;;;24.60;;
1336;SDS011;662;48.814;9.318;2023-02-15T04:30:13;28.50;;;23.70;;
1336;SDS011;662;48.814;9.318;2023-02-15T04:32:39;33.90;;;27.00;;
1336;SDS011;662;48.814;9.318;2023-02-15T04:35:05;35.70;;;27.10;;
1336;SDS011;662;48.814;9.318;2023-02-15T04:37:32;34.93;;;25.97;;
1336;SDS011;662;48.814;9.318;2023-02-15T04:39:58;36.50;;;26.93;;
1336;SDS011;662;48.814;9.318;2023-02-15T04:42:27;36.30;;;27.43;;
1336;SDS011;662;48.814;9.318;2023-02-15T04:44:54;36.77;;;27.27;;
1336;SDS011;662;48.814;9.318;2023-02-15T04:47:19;38.47;;;27.77;;
1336;SDS011;662;48.814;9.318;2023-02-15T04:49:45;39.37;;;26.77;;
1336;SDS011;662;48.814;9.318;2023-02-15T04:52:11;34.47;;;26.77;;
1336;SDS011;662;48.814;9.318;2023-02-15T04:54:39;36.73;;;26.97;;
1336;SDS011;662;48.814;9.318;2023-02-15T04:57:04;32.60;;;27.33;;
1336;SDS011;662;48.814;9.318;2023-02-15T04:59:31;35.03;;;25.87;;
1336;SDS011;662;48.814;9.318;2023-02-15T05:01:56;34.30;;;27.10;;
1336;SDS011;662;48.814;9.318;2023-02-15T05:04:22;41.10;;;27.10;;
1336;SDS011;662;48.814;9.318;2023-02-15T05:06:48;37.63;;;27.97;;
1336;SDS011;662;48.814;9.318;2023-02-15T05:09:14;37.37;;;25.10;;
1336;SDS011;662;48.814;9.318;2023-02-15T05:11:40;50.53;;;28.67;;
1336;SDS011;662;48.814;9.318;2023-02-15T05:14:06;33.93;;;24.07;;
1336;SDS011;662;48.814;9.318;2023-02-15T05:16:31;35.60;;;25.67;;
1336;SDS011;662;48.814;9.318;2023-02-15T05:18:57;45.77;;;33.20;;
1336;SDS011;662;48.814;9.318;2023-02-15T05:21:24;32.47;;;25.47;;
1336;SDS011;662;48.814;9.318;2023-02-15T05:23:49;44.57;;;27.87;;
1336;SDS011;662;48.814;9.318;2023-02-15T05:26:19;37.63;;;26.43;;
1336;SDS011;662;48.814;9.318;2023-02-15T05:29:05;34.40;;;26.67;;
1336;SDS011;662;48.814;9.318;2023-02-15T05:31:32;31.97;;;25.70;;
1336;SDS011;662;48.814;9.318;2023-02-15T05:33:58;37.03;;;26.90;;
1336;SDS011;662;48.814;9.318;2023-02-15T05:36:29;37.27;;;28.30;;
1336;SDS011;662;48.814;9.318;2023-02-15T05:38:55;37.37;;;29.27;;
1336;SDS011;662;48.814;9.318;2023-02-15T05:41:20;43.50;;;28.27;;
1336;SDS011;662;48.814;9.318;2023-02-15T05:43:46;34.67;;;26.37;;
1336;SDS011;662;48.814;9.318;2023-02-15T05:46:12;36.73;;;25.90;;
1336;SDS011;662;48.814;9.318;2023-02-15T05:48:38;37.23;;;25.53;;
1336;SDS011;662;48.814;9.318;2023-02-15T05:53:31;32.23;;;26.73;;
1336;SDS011;662;48.814;9.318;2023-02-15T05:55:59;29.63;;;25.40;;
1336;SDS011;662;48.814;9.318;2023-02-15T05:58:25;42.70;;;28.90;;
1336;SDS011;662;48.814;9.318;2023-02-15T06:00:52;39.00;;;26.47;;
1336;SDS011;662;48.814;9.318;2023-02-15T06:03:18;38.10;;;28.93;;
1336;SDS011;662;48.814;9.318;2023-02-15T06:05:43;28.37;;;25.23;;
1336;SDS011;662;48.814;9.318;2023-02-15T06:08:09;31.23;;;26.13;;
1336;SDS011;662;48.814;9.318;2023-02-15T06:10:36;24.30;;;21.17;;
1336;SDS011;662;48.814;9.318;2023-02-15T06:13:01;32.43;;;29.23;;
1336;SDS011;662;48.814;9.318;2023-02-15T06:15:27;48.13;;;35.17;;
1336;SDS011;662;48.814;9.318;2023-02-15T06:17:53;38.80;;;34.70;;
1336;SDS011;662;48.814;9.318;2023-02-15T06:20:18;31.70;;;26.03;;
1336;SDS011;662;48.814;9.318;2023-02-15T06:22:45;31.10;;;24.00;;
1336;SDS011;662;48.814;9.318;2023-02-15T06:25:11;34.40;;;24.37;;
1336;SDS011;662;48.814;9.318;2023-02-15T06:27:37;26.40;;;22.67;;
1336;SDS011;662;48.814;9.318;2023-02-15T06:30:05;26.93;;;24.03;;
1336;SDS011;662;48.814;9.318;2023-02-15T06:32:32;33.63;;;25.80;;
1336;SDS011;662;48.814;9.318;2023-02-15T06:34:58;27.37;;;24.20;;
1336;SDS011;662;48.814;9.318;2023-02-15T06:37:23;28.67;;;23.70;;
1336;SDS011;662;48.814;9.318;2023-02-15T06:39:49;33.13;;;24.40;;
1336;SDS011;662;48.814;9.318;2023-02-15T06:42:15;39.33;;;24.87;;
1336;SDS011;662;48.814;9.318;2023-02-15T06:44:42;30.03;;;25.03;;
1336;SDS011;662;48.814;9.318;2023-02-15T06:47:08;32.70;;;25.47;;
1336;SDS011;662;48.814;9.318;2023-02-15T06:49:34;32.33;;;24.80;;
1336;SDS011;662;48.814;9.318;2023-02-15T06:51:59;35.50;;;25.97;;
1336;SDS011;662;48.814;9.318;2023-02-15T06:54:25;40.80;;;23.87;;
1336;SDS011;662;48.814;9.318;2023-02-15T06:56:50;43.50;;;25.83;;
1336;SDS011;662;48.814;9.318;2023-02-15T06:59:16;53.00;;;27.47;;
1336;SDS011;662;48.814;9.318;2023-02-15T07:01:42;46.07;;;26.20;;
1336;SDS011;662;48.814;9.318;2023-02-15T07:04:07;39.97;;;26.13;;
1336;SDS011;662;48.814;9.318;2023-02-15T07:06:33;37.50;;;24.20;;
1336;SDS011;662;48.814;9.318;2023-02-15T07:08:59;41.33;;;24.33;;
1336;SDS011;662;48.814;9.318;2023-02-15T07:11:25;42.90;;;26.20;;
1336;SDS011;662;48.814;9.318;2023-02-15T07:14:09;28.70;;;24.40;;
1336;SDS011;662;48.814;9.318;2023-02-15T07:16:35;32.83;;;27.17;;
1336;SDS011;662;48.814;9.318;2023-02-15T07:19:00;41.90;;;29.33;;
1336;SDS011;662;48.814;9.318;2023-02-15T07:21:26;41.03;;;28.20;;
1336;SDS011;662;48.814;9.318;2023-02-15T07:23:52;36.97;;;28.23;;
1336;SDS011;662;48.814;9.318;2023-02-15T07:26:20;35.20;;;25.80;;
1336;SDS011;662;48.814;9.318;2023-02-15T07:28:46;46.07;;;27.97;;
1336;SDS011;662;48.814;9.318;2023-02-15T07:31:11;34.43;;;25.57;;
1336;SDS011;662;48.814;9.318;2023-02-15T07:33:37;35.90;;;27.33;;
1336;SDS011;662;48.814;9.318;2023-02-15T07:36:03;46.50;;;24.90;;
1336;SDS011;662;48.814;9.318;2023-02-15T07:38:30;33.10;;;25.90;;
1336;SDS011;662;48.814;9.318;2023-02-15T07:40:58;27.87;;;23.40;;
1336;SDS011;662;48.814;9.318;2023-02-15T07:43:24;42.30;;;25.73;;
1336;SDS011;662;48.814;9.318;2023-02-15T07:45:50;30.30;;;24.90;;
1336;SDS011;662;48.814;9.318;2023-02-15T07:48:16;47.93;;;26.87;;
1336;SDS011;662;48.814;9.318;2023-02-15T07:50:42;28.60;;;24.00;;
1336;SDS011;662;48.814;9.318;2023-02-15T07:53:08;27.33;;;22.80;;
1336;SDS011;662;48.814;9.318;2023-02-15T07:55:34;35.53;;;25.20;;
1336;SDS011;662;48.814;9.318;2023-02-15T07:58:00;31.57;;;23.73;;
1336;SDS011;662;48.814;9.318;2023-02-15T08:00:25;46.43;;;25.07;;
1336;SDS011;662;48.814;9.318;2023-02-15T08:02:52;36.87;;;26.07;;
1336;SDS011;662;48.814;9.318;2023-02-15T08:05:38;50.13;;;28.10;;
1336;SDS011;662;48.814;9.318;2023-02-15T08:08:05;35.43;;;26.57;;
1336;SDS011;662;48.814;9.318;2023-02-15T08:10:31;28.10;;;23.10;;
1336;SDS011;662;48.814;9.318;2023-02-15T08:13:16;27.27;;;23.73;;
1336;SDS011;662;48.814;9.318;2023-02-15T08:15:47;43.07;;;23.03;;
1336;SDS011;662;48.814;9.318;2023-02-15T08:18:18;38.50;;;22.80;;
1336;SDS011;662;48.814;9.318;2023-02-15T08:20:48;38.20;;;23.70;;
1336;SDS011;662;48.814;9.318;2023-02-15T08:23:14;35.47;;;23.00;;
1336;SDS011;662;48.814;9.318;2023-02-15T08:25:40;34.43;;;22.50;;
1336;SDS011;662;48.814;9.318;2023-02-15T08:28:05;26.47;;;22.43;;
1336;SDS011;662;48.814;9.318;2023-02-15T08:30:31;28.27;;;23.03;;
1336;SDS011;662;48.814;9.318;2023-02-15T08:32:57;25.83;;;23.00;;
1336;SDS011;662;48.814;9.318;2023-02-15T08:35:23;37.73;;;25.07;;
1336;SDS011;662;48.814;9.318;2023-02-15T08:37:48;32.17;;;24.33;;
1336;SDS011;662;48.814;9.318;2023-02-15T08:40:14;34.63;;;23.83;;
1336;SDS011;662;48.814;9.318;2023-02-15T08:42:41;30.47;;;24.77;;
1336;SDS011;662;48.814;9.318;2023-02-15T08:45:06;33.33;;;26.30;;
1336;SDS011;662;48.814;9.318;2023-02-15T08:47:32;32.83;;;26.17;;
1336;SDS011;662;48.814;9.318;2023-02-15T08:49:58;29.40;;;25.03;;
1336;SDS011;662;48.814;9.318;2023-02-15T08:52:23;35.27;;;26.20;;
1336;SDS011;662;48.814;9.318;2023-02-15T08:54:49;28.80;;;24.67;;
1336;SDS011;662;48.814;9.318;2023-02-15T08:57:14;30.50;;;23.60;;
1336;SDS011;662;48.814;9.318;2023-02-15T08:59:40;29.17;;;25.23;;
1336;SDS011;662;48.814;9.318;2023-02-15T09:02:06;32.13;;;25.87;;
1336;SDS011;662;48.814;9.318;2023-02-15T09:04:34;31.20;;;24.80;;
1336;SDS011;662;48.814;9.318;2023-02-15T09:07:00;34.20;;;25.40;;
1336;SDS011;662;48.814;9.318;2023-02-15T09:09:27;31.73;;;24.27;;
1336;SDS011;662;48.814;9.318;2023-02-15T09:11:52;29.87;;;23.23;;
1336;SDS011;662;48.814;9.318;2023-02-15T09:14:19;33.43;;;24.83;;
1336;SDS011;662;48.814;9.318;2023-02-15T09:16:46;32.13;;;24.07;;
1336;SDS011;662;48.814;9.318;2023-02-15T09:19:17;30.13;;;24.73;;
1336;SDS011;662;48.814;9.318;2023-02-15T09:21:44;33.00;;;24.60;;
1336;SDS011;662;48.814;9.318;2023-02-15T09:24:11;29.10;;;23.20;;
1336;SDS011;662;48.814;9.318;2023-02-15T09:26:41;31.87;;;24.30;;
1336;SDS011;662;48.814;9.318;2023-02-15T09:29:08;33.63;;;24.50;;
1336;SDS011;662;48.814;9.318;2023-02-15T09:31:40;30.90;;;24.40;;
1336;SDS011;662;48.814;9.318;2023-02-15T09:34:09;33.40;;;25.17;;
1336;SDS011;662;48.814;9.318;2023-02-15T09:36:36;30.40;;;24.87;;
1336;SDS011;662;48.814;9.318;2023-02-15T09:41:49;32.60;;;24.00;;
1336;SDS011;662;48.814;9.318;2023-02-15T09:50:27;29.80;;;22.97;;
1336;SDS011;662;48.814;9.318;2023-02-15T09:56:06;26.80;;;21.60;;
1336;SDS011;662;48.814;9.318;2023-02-15T10:01:20;33.43;;;25.70;;
1336;SDS011;662;48.814;9.318;2023-02-15T10:20:44;28.90;;;23.17;;
1336;SDS011;662;48.814;9.318;2023-02-15T10:23:33;25.70;;;22.50;;
1336;SDS011;662;48.814;9.318;2023-02-15T10:26:42;31.07;;;24.20;;
1336;SDS011;662;48.814;9.318;2023-02-15T10:31:50;29.90;;;23.23;;
1336;SDS011;662;48.814;9.318;2023-02-15T10:37:03;31.73;;;22.80;;
1336;SDS011;662;48.814;9.318;2023-02-15T10:42:11;32.07;;;22.87;;
1336;SDS011;662;48.814;9.318;2023-02-15T10:47:27;33.00;;;25.83;;
1336;SDS011;662;48.814;9.318;2023-02-15T10:50:09;34.63;;;25.27;;
1336;SDS011;662;48.814;9.318;2023-02-15T10:55:40;39.50;;;26.30;;
1336;SDS011;662;48.814;9.318;2023-02-15T11:04:32;33.30;;;26.97;;
1336;SDS011;662;48.814;9.318;2023-02-15T11:07:11;35.40;;;26.57;;
1336;SDS011;662;48.814;9.318;2023-02-15T11:10:01;31.33;;;26.13;;
1336;SDS011;662;48.814;9.318;2023-02-15T11:12:47;35.20;;;28.00;;
1336;SDS011;662;48.814;9.318;2023-02-15T11:20:47;30.60;;;24.53;;
1336;SDS011;662;48.814;9.318;2023-02-15T11:23:19;32.70;;;25.33;;
1336;SDS011;662;48.814;9.318;2023-02-15T11:25:46;35.60;;;26.30;;
1336;SDS011;662;48.814;9.318;2023-02-15T11:28:27;36.40;;;25.90;;
1336;SDS011;662;48.814;9.318;2023-02-15T11:31:15;31.60;;;25.27;;
1336;SDS011;662;48.814;9.318;2023-02-15T11:33:44;34.50;;;25.10;;
1336;SDS011;662;48.814;9.318;2023-02-15T11:36:20;32.47;;;24.17;;
1336;SDS011;662;48.814;9.318;2023-02-15T11:38:51;27.87;;;23.33;;
1336;SDS011;662;48.814;9.318;2023-02-15T11:41:24;31.67;;;24.20;;
1336;SDS011;662;48.814;9.318;2023-02-15T11:43:58;30.33;;;23.00;;
1336;SDS011;662;48.814;9.318;2023-02-15T11:46:25;31.53;;;22.23;;
1336;SDS011;662;48.814;9.318;2023-02-15T11:48:51;24.90;;;22.10;;
1336;SDS011;662;48.814;9.318;2023-02-15T11:51:17;27.07;;;20.63;;
1336;SDS011;662;48.814;9.318;2023-02-15T11:53:45;24.57;;;20.80;;
1336;SDS011;662;48.814;9.318;2023-02-15T11:56:19;33.93;;;20.33;;
1336;SDS011;662;48.814;9.318;2023-02-15T12:01:31;26.57;;;21.57;;
1336;SDS011;662;48.814;9.318;2023-02-15T12:04:08;27.30;;;20.30;;
1336;SDS011;662;48.814;9.318;2023-02-15T12:06:48;23.20;;;19.80;;
1336;SDS011;662;48.814;9.318;2023-02-15T12:09:20;25.77;;;20.90;;
1336;SDS011;662;48.814;9.318;2023-02-15T12:11:49;29.50;;;20.13;;
1336;SDS011;662;48.814;9.318;2023-02-15T12:14:14;25.50;;;20.67;;
1336;SDS011;662;48.814;9.318;2023-02-15T12:16:50;24.77;;;19.77;;
1336;SDS011;662;48.814;9.318;2023-02-15T12:21:51;24.20;;;20.70;;
1336;SDS011;662;48.814;9.318;2023-02-15T12:24:36;24.97;;;21.13;;
1336;SDS011;662;48.814;9.318;2023-02-15T12:27:15;24.60;;;20.30;;
1336;SDS011;662;48.814;9.318;2023-02-15T12:29:44;27.23;;;20.83;;
1336;SDS011;662;48.814;9.318;2023-02-15T12:32:18;26.13;;;20.33;;
1336;SDS011;662;48.814;9.318;2023-02-15T12:34:51;29.20;;;19.60;;
1336;SDS011;662;48.814;9.318;2023-02-15T12:37:22;24.30;;;20.20;;
1336;SDS011;662;48.814;9.318;2023-02-15T12:39:53;25.57;;;18.67;;
1336;SDS011;662;48.814;9.318;2023-02-15T12:42:24;21.50;;;19.20;;
1336;SDS011;662;48.814;9.318;2023-02-15T12:47:44;22.53;;;18.80;;
1336;SDS011;662;48.814;9.318;2023-02-15T12:50:14;23.40;;;18.50;;
1336;SDS011;662;48.814;9.318;2023-02-15T12:52:47;23.53;;;18.47;;
1336;SDS011;662;48.814;9.318;2023-02-15T12:55:22;22.67;;;18.30;;
1336;SDS011;662;48.814;9.318;2023-02-15T12:58:04;24.07;;;18.23;;
1336;SDS011;662;48.814;9.318;2023-02-15T13:01:04;23.43;;;18.60;;
1336;SDS011;662;48.814;9.318;2023-02-15T13:03:38;25.83;;;18.90;;
1336;SDS011;662;48.814;9.318;2023-02-15T13:06:19;26.73;;;19.10;;
1336;SDS011;662;48.814;9.318;2023-02-15T13:08:47;21.00;;;18.70;;
1336;SDS011;662;48.814;9.318;2023-02-15T13:11:25;22.93;;;18.33;;
1336;SDS011;662;48.814;9.318;2023-02-15T13:13:59;24.23;;;18.83;;
1336;SDS011;662;48.814;9.318;2023-02-15T13:16:41;23.20;;;19.10;;
1336;SDS011;662;48.814;9.318;2023-02-15T13:19:18;22.67;;;19.60;;
1336;SDS011;662;48.814;9.318;2023-02-15T13:21:50;23.53;;;19.77;;
1336;SDS011;662;48.814;9.318;2023-02-15T13:24:21;22.63;;;19.27;;
1336;SDS011;662;48.814;9.318;2023-02-15T13:27:00;21.40;;;16.90;;
1336;SDS011;662;48.814;9.318;2023-02-15T13:29:31;23.30;;;18.93;;
1336;SDS011;662;48.814;9.318;2023-02-15T13:32:10;23.07;;;17.50;;
1336;SDS011;662;48.814;9.318;2023-02-15T13:34:44;23.20;;;18.90;;
1336;SDS011;662;48.814;9.318;2023-02-15T13:37:20;21.40;;;18.13;;
1336;SDS011;662;48.814;9.318;2023-02-15T13:40:15;23.10;;;18.30;;
1336;SDS011;662;48.814;9.318;2023-02-15T13:42:49;19.67;;;17.57;;
1336;SDS011;662;48.814;9.318;2023-02-15T13:45:30;23.90;;;17.90;;
1336;SDS011;662;48.814;9.318;2023-02-15T14:05:22;19.50;;;15.67;;
1336;SDS011;662;48.814;9.318;2023-02-15T14:10:56;18.17;;;15.73;;
1336;SDS011;662;48.814;9.318;2023-02-15T14:21:42;22.83;;;17.00;;
1336;SDS011;662;48.814;9.318;2023-02-15T14:27:57;21.33;;;16.60;;
1336;SDS011;662;48.814;9.318;2023-02-15T14:30:24;24.33;;;16.17;;
1336;SDS011;662;48.814;9.318;2023-02-15T14:33:10;22.43;;;16.37;;
1336;SDS011;662;48.814;9.318;2023-02-15T14:35:41;19.60;;;16.23;;
1336;SDS011;662;48.814;9.318;2023-02-15T14:40:43;18.20;;;16.30;;
1336;SDS011;662;48.814;9.318;2023-02-15T14:49:06;21.33;;;17.07;;
1336;SDS011;662;48.814;9.318;2023-02-15T14:54:09;23.60;;;16.97;;
1336;SDS011;662;48.814;9.318;2023-02-15T14:56:35;19.03;;;16.93;;
1336;SDS011;662;48.814;9.318;2023-02-15T14:59:14;18.27;;;16.30;;
1336;SDS011;662;48.814;9.318;2023-02-15T15:01:50;22.03;;;17.40;;
1336;SDS011;662;48.814;9.318;2023-02-15T15:04:35;22.63;;;18.47;;
1336;SDS011;662;48.814;9.318;2023-02-15T15:07:14;19.27;;;17.13;;
1336;SDS011;662;48.814;9.318;2023-02-15T15:10:00;19.00;;;17.00;;
1336;SDS011;662;48.814;9.318;2023-02-15T15:12:43;18.93;;;16.80;;
1336;SDS011;662;48.814;9.318;2023-02-15T15:18:03;19.73;;;17.67;;
1336;SDS011;662;48.814;9.318;2023-02-15T15:20:42;19.93;;;17.80;;
1336;SDS011;662;48.814;9.318;2023-02-15T15:50:15;22.70;;;18.60;;
1336;SDS011;662;48.814;9.318;2023-02-15T15:52:47;25.90;;;19.80;;
1336;SDS011;662;48.814;9.318;2023-02-15T15:55:27;25.70;;;19.10;;
1336;SDS011;662;48.814;9.318;2023-02-15T15:57:56;22.07;;;19.73;;
1336;SDS011;662;48.814;9.318;2023-02-15T16:00:36;23.20;;;18.80;;
1336;SDS011;662;48.814;9.318;2023-02-15T16:03:15;24.80;;;19.07;;
1336;SDS011;662;48.814;9.318;2023-02-15T16:05:45;22.40;;;18.20;;
1336;SDS011;662;48.814;9.318;2023-02-15T16:08:13;25.53;;;19.13;;
1336;SDS011;662;48.814;9.318;2023-02-15T16:10:50;27.70;;;20.37;;
1336;SDS011;662;48.814;9.318;2023-02-15T16:13:15;23.13;;;19.47;;
1336;SDS011;662;48.814;9.318;2023-02-15T16:15:45;23.80;;;19.60;;
1336;SDS011;662;48.814;9.318;2023-02-15T16:18:17;28.03;;;19.00;;
1336;SDS011;662;48.814;9.318;2023-02-15T16:20:58;23.53;;;19.90;;
1336;SDS011;662;48.814;9.318;2023-02-15T16:23:32;29.03;;;20.60;;
1336;SDS011;662;48.814;9.318;2023-02-15T16:28:35;26.17;;;20.63;;
1336;SDS011;662;48.814;9.318;2023-02-15T16:31:06;27.40;;;21.17;;
1336;SDS011;662;48.814;9.318;2023-02-15T16:33:42;26.77;;;21.07;;
1336;SDS011;662;48.814;9.318;2023-02-15T16:36:19;28.33;;;20.43;;
1336;SDS011;662;48.814;9.318;2023-02-15T16:41:21;30.50;;;24.67;;
1336;SDS011;662;48.814;9.318;2023-02-15T16:43:49;27.83;;;22.67;;
1336;SDS011;662;48.814;9.318;2023-02-15T16:46:30;29.53;;;22.97;;
1336;SDS011;662;48.814;9.318;2023-02-15T16:48:59;31.43;;;24.80;;
1336;SDS011;662;48.814;9.318;2023-02-15T16:51:30;38.47;;;25.90;;
1336;SDS011;662;48.814;9.318;2023-02-15T16:54:07;36.60;;;24.70;;
1336;SDS011;662;48.814;9.318;2023-02-15T16:56:41;28.47;;;21.57;;
1336;SDS011;662;48.814;9.318;2023-02-15T16:59:15;28.00;;;24.10;;
1336;SDS011;662;48.814;9.318;2023-02-15T17:01:48;25.67;;;21.97;;
1336;SDS011;662;48.814;9.318;2023-02-15T17:04:35;30.20;;;22.87;;
1336;SDS011;662;48.814;9.318;2023-02-15T17:07:04;30.00;;;23.03;;
1336;SDS011;662;48.814;9.318;2023-02-15T17:09:30;30.20;;;23.00;;
1336;SDS011;662;48.814;9.318;2023-02-15T17:11:57;36.20;;;23.67;;
1336;SDS011;662;48.814;9.318;2023-02-15T17:14:30;32.83;;;23.00;;
1336;SDS011;662;48.814;9.318;2023-02-15T17:17:00;30.00;;;23.20;;
1336;SDS011;662;48.814;9.318;2023-02-15T17:19:32;30.43;;;24.03;;
1336;SDS011;662;48.814;9.318;2023-02-15T17:22:14;27.40;;;22.23;;
1336;SDS011;662;48.814;9.318;2023-02-15T17:24:44;29.20;;;23.70;;
1336;SDS011;662;48.814;9.318;2023-02-15T17:29:56;32.30;;;25.07;;
1336;SDS011;662;48.814;9.318;2023-02-15T17:32:25;33.00;;;24.37;;
1336;SDS011;662;48.814;9.318;2023-02-15T17:37:50;34.73;;;24.07;;
1336;SDS011;662;48.814;9.318;2023-02-15T17:40:27;37.23;;;24.17;;
1336;SDS011;662;48.814;9.318;2023-02-15T17:42:57;33.57;;;23.10;;
1336;SDS011;662;48.814;9.318;2023-02-15T17:45:24;33.37;;;24.73;;
1336;SDS011;662;48.814;9.318;2023-02-15T17:47:57;35.73;;;24.27;;
1336;SDS011;662;48.814;9.318;2023-02-15T17:50:26;36.90;;;25.20;;
1336;SDS011;662;48.814;9.318;2023-02-15T17:52:53;35.13;;;26.83;;
1336;SDS011;662;48.814;9.318;2023-02-15T17:55:21;35.23;;;26.37;;
1336;SDS011;662;48.814;9.318;2023-02-15T17:58:00;37.47;;;25.87;;
1336;SDS011;662;48.814;9.318;2023-02-15T18:00:28;32.30;;;25.43;;
1336;SDS011;662;48.814;9.318;2023-02-15T18:03:18;37.20;;;25.40;;
1336;SDS011;662;48.814;9.318;2023-02-15T18:06:02;34.13;;;26.10;;
1336;SDS011;662;48.814;9.318;2023-02-15T18:08:46;29.87;;;25.00;;
1336;SDS011;662;48.814;9.318;2023-02-15T18:11:30;34.00;;;25.40;;
1336;SDS011;662;48.814;9.318;2023-02-15T18:14:00;31.97;;;24.80;;
1336;SDS011;662;48.814;9.318;2023-02-15T18:16:26;33.63;;;27.13;;